カンクン の空港の天気 - METARとTAF

カンクン国際空港 ( MMUN / CUN ) - メキシコ キンタナ・ロー州カンクン
飛行場実況気象(Metar)
観測時間04/25 08:44 CDT (04/25 13:44 UTC)
風向・風速静穏 0m/s
視程10km以上
天気現象
少しの雲 雲底高度 460m
気温28℃
湿度79%
気圧1016hPa
METARMMUN 251344Z 00000KT 7SM FEW015 28/24 A3001 RMK 8/100
過去の天気等 Google飛行場航空写真 Wunderground天気予報

過去48時間のMETAR

飛行場予報(TAF)
発表時間: 4/25 08:44 CDT (4/25 13:44 UTC)
予報対象時間: 25日9時 CDT ~ 26日13時 CDT
風向・風速北北西 5m/s
視程10km以上
なし
25日13時 CDT から
風向・風速東北東 5m/s
視程10km以上
全天の4割程度の雲 雲底高度 610m
25日16時 CDT から
風向・風速北北西 6m/s
視程6,440m
天気現象
全天の8割程度の積乱雲 雲底高度 460m
全天を覆う雲 雲底高度 2,440m
25日20時 CDT から
風向・風速北北西 6m/s
視程10km以上
全天の4割程度の雲 雲底高度 460m
全天の8割程度の雲 雲底高度 6,100m
TAF AMD MMUN 251344Z 2514/2618 34010KT P6SM SKC TX31/2520Z TN22/2612Z
FM251800 06010KT P6SM SCT020
FM252100 34012KT 4SM RA BKN015CB OVC080
FM260100 34012KT P6SM SCT015 BKN200